Time;durP1;ratioP1;P1;durP2;ratioP2;P2;SDS_P1;SDS_P2;PMS_P1;PMS_P2;Temp;Humidity;BMP_temperature;BMP_pressure;BME280_temperature;BME280_humidity;BME280_pressure;Samples;Min_cycle;Max_cycle;Signal;HPM_P1;HPM_P2
2022/04/11 00:01:12;;;;;;;5.20;3.17;;;;;;;;;;5013570;28;20279;-41
2022/04/11 00:03:38;;;;;;;4.35;2.83;;;;;;;;;;5013723;28;20105;-43
2022/04/11 00:06:03;;;;;;;4.43;3.10;;;;;;;;;;5013661;28;20421;-42
2022/04/11 00:08:29;;;;;;;3.35;2.45;;;;;;;;;;5013541;28;20034;-42
2022/04/11 00:10:54;;;;;;;2.67;2.40;;;;;;;;;;5013743;28;20201;-43
2022/04/11 00:13:20;;;;;;;10.77;2.85;;;;;;;;;;5013741;28;20042;-40
2022/04/11 00:15:46;;;;;;;5.47;3.13;;;;;;;;;;5013857;28;20030;-41
2022/04/11 00:18:11;;;;;;;4.07;3.13;;;;;;;;;;5013620;28;20390;-42
2022/04/11 00:20:37;;;;;;;5.13;2.83;;;;;;;;;;5013668;28;20026;-44
2022/04/11 00:23:04;;;;;;;7.63;3.72;;;;;;;;;;5013211;28;20117;-40
2022/04/11 00:25:30;;;;;;;4.47;3.03;;;;;;;;;;5013478;28;20359;-43
2022/04/11 00:27:55;;;;;;;4.35;2.83;;;;;;;;;;5013154;28;20037;-40
2022/04/11 00:30:21;;;;;;;4.28;2.88;;;;;;;;;;5013422;28;20034;-41
2022/04/11 00:32:46;;;;;;;6.15;3.33;;;;;;;;;;5013116;28;20088;-43
2022/04/11 00:35:13;;;;;;;6.50;2.60;;;;;;;;;;5013103;28;20030;-43
2022/04/11 00:37:39;;;;;;;7.43;3.42;;;;;;;;;;5013030;28;20076;-41
2022/04/11 00:40:06;;;;;;;4.88;3.20;;;;;;;;;;5013335;28;20068;-44
2022/04/11 00:42:32;;;;;;;5.45;3.35;;;;;;;;;;5013238;28;20036;-41
2022/04/11 00:44:59;;;;;;;3.65;2.80;;;;;;;;;;5012785;28;20038;-42
2022/04/11 00:47:26;;;;;;;7.03;3.22;;;;;;;;;;5012853;28;20370;-42
2022/04/11 00:49:55;;;;;;;3.40;2.95;;;;;;;;;;5012943;28;20437;-42
2022/04/11 00:52:21;;;;;;;5.28;2.65;;;;;;;;;;5013195;28;20030;-41
2022/04/11 00:54:47;;;;;;;5.22;3.20;;;;;;;;;;5012692;28;20042;-43
2022/04/11 00:57:15;;;;;;;7.80;3.75;;;;;;;;;;5012651;28;20482;-41
2022/04/11 00:59:41;;;;;;;5.75;3.60;;;;;;;;;;5011935;28;20062;-42
2022/04/11 01:02:07;;;;;;;6.03;3.88;;;;;;;;;;5012728;28;20037;-45
2022/04/11 01:04:32;;;;;;;6.00;4.30;;;;;;;;;;5012736;28;20030;-40
2022/04/11 01:06:58;;;;;;;5.50;3.38;;;;;;;;;;4995442;28;20033;-42
2022/04/11 01:09:24;;;;;;;5.45;3.25;;;;;;;;;;5012596;28;20064;-44
2022/04/11 01:11:51;;;;;;;9.45;3.88;;;;;;;;;;5012938;28;20056;-43
2022/04/11 01:14:17;;;;;;;4.57;3.17;;;;;;;;;;5013005;28;20030;-44
2022/04/11 01:16:50;;;;;;;6.93;3.35;;;;;;;;;;5012592;28;20057;-41
2022/04/11 01:19:16;;;;;;;3.92;2.95;;;;;;;;;;5012469;28;20546;-43
2022/04/11 01:21:47;;;;;;;5.53;2.35;;;;;;;;;;5012757;28;20033;-41
2022/04/11 01:24:13;;;;;;;9.52;3.28;;;;;;;;;;5012802;28;20229;-41
2022/04/11 01:26:40;;;;;;;5.07;3.47;;;;;;;;;;5012618;28;20586;-40
2022/04/11 01:29:08;;;;;;;6.72;3.70;;;;;;;;;;5012398;28;20054;-42
2022/04/11 01:31:34;;;;;;;7.32;3.85;;;;;;;;;;5012651;28;20409;-41
2022/04/11 01:34:00;;;;;;;5.22;3.20;;;;;;;;;;5012636;28;20030;-40
2022/04/11 01:36:25;;;;;;;7.90;3.00;;;;;;;;;;5012368;28;20036;-41
2022/04/11 01:38:51;;;;;;;5.32;3.55;;;;;;;;;;5012326;28;20156;-42
2022/04/11 01:41:16;;;;;;;5.13;3.05;;;;;;;;;;5012480;28;20026;-43
2022/04/11 01:43:42;;;;;;;3.42;2.83;;;;;;;;;;5012290;28;20034;-44
2022/04/11 01:46:08;;;;;;;4.68;3.20;;;;;;;;;;5012267;28;20025;-43
2022/04/11 01:48:33;;;;;;;3.17;2.70;;;;;;;;;;5012501;28;20022;-42
2022/04/11 01:50:59;;;;;;;5.38;2.63;;;;;;;;;;5012216;28;20022;-42
2022/04/11 01:53:24;;;;;;;5.05;3.17;;;;;;;;;;5012517;28;20185;-42
2022/04/11 01:55:50;;;;;;;4.97;3.40;;;;;;;;;;5012065;28;20404;-40
2022/04/11 01:58:16;;;;;;;6.85;3.90;;;;;;;;;;5012130;28;20116;-43
2022/04/11 02:00:43;;;;;;;4.80;3.58;;;;;;;;;;5012206;28;20088;-43
2022/04/11 02:03:10;;;;;;;12.32;3.88;;;;;;;;;;5012038;28;20193;-43
2022/04/11 02:05:36;;;;;;;8.43;4.32;;;;;;;;;;4994944;28;20018;-42
2022/04/11 02:08:04;;;;;;;6.25;3.92;;;;;;;;;;5012376;28;20029;-43
2022/04/11 02:10:30;;;;;;;3.38;2.80;;;;;;;;;;5014477;28;20084;-44
2022/04/11 02:12:56;;;;;;;7.18;2.58;;;;;;;;;;5016025;28;20494;-44
2022/04/11 02:15:22;;;;;;;4.57;2.83;;;;;;;;;;5015897;28;20397;-41
2022/04/11 02:17:48;;;;;;;5.50;2.65;;;;;;;;;;5015958;28;20466;-43
2022/04/11 02:20:13;;;;;;;3.65;2.38;;;;;;;;;;5015885;28;20030;-40
2022/04/11 02:22:59;;;;;;;3.20;2.90;;;;;;;;;;5015425;28;20061;-44
2022/04/11 02:25:27;;;;;;;2.20;1.90;;;;;;;;;;5015466;28;20566;-42
2022/04/11 02:27:57;;;;;;;2.40;2.13;;;;;;;;;;5015398;28;20505;-40
2022/04/11 02:30:23;;;;;;;2.75;2.20;;;;;;;;;;5015747;28;20112;-43
2022/04/11 02:32:50;;;;;;;3.45;2.55;;;;;;;;;;5015603;28;20022;-43
2022/04/11 02:35:16;;;;;;;3.85;2.15;;;;;;;;;;5015300;28;20039;-41
2022/04/11 02:37:42;;;;;;;2.95;2.10;;;;;;;;;;5015186;28;20041;-42
2022/04/11 02:40:08;;;;;;;3.25;2.38;;;;;;;;;;5015260;28;20072;-42
2022/04/11 02:42:35;;;;;;;3.28;2.47;;;;;;;;;;5015384;28;20116;-41
2022/04/11 02:45:00;;;;;;;3.80;2.70;;;;;;;;;;5015066;28;20022;-43
2022/04/11 02:47:26;;;;;;;5.47;3.05;;;;;;;;;;5015231;28;20036;-42
2022/04/11 02:49:52;;;;;;;2.83;2.33;;;;;;;;;;5015360;28;20044;-43
2022/04/11 02:52:18;;;;;;;2.13;1.92;;;;;;;;;;5014937;28;20389;-41
2022/04/11 02:54:43;;;;;;;3.15;2.05;;;;;;;;;;5014704;28;20073;-44
2022/04/11 02:57:10;;;;;;;2.58;2.08;;;;;;;;;;5014995;28;20025;-41
2022/04/11 02:59:36;;;;;;;1.88;1.73;;;;;;;;;;5014773;28;20051;-40
2022/04/11 03:02:03;;;;;;;4.80;2.30;;;;;;;;;;5015040;28;20064;-42
2022/04/11 03:04:29;;;;;;;3.75;2.38;;;;;;;;;;5014830;28;20529;-42
2022/04/11 03:06:55;;;;;;;2.17;1.98;;;;;;;;;;5015006;28;20030;-43
2022/04/11 03:09:21;;;;;;;3.00;2.10;;;;;;;;;;5014368;28;20505;-44
2022/04/11 03:11:47;;;;;;;2.65;2.45;;;;;;;;;;5014608;28;20061;-41
2022/04/11 03:14:13;;;;;;;4.05;2.17;;;;;;;;;;5014509;28;20053;-44
2022/04/11 03:16:40;;;;;;;6.43;2.40;;;;;;;;;;5014556;28;20026;-41
2022/04/11 03:19:06;;;;;;;2.72;2.47;;;;;;;;;;5014420;28;20026;-43
2022/04/11 03:21:32;;;;;;;2.80;2.20;;;;;;;;;;5013876;28;20164;-41
2022/04/11 03:23:57;;;;;;;3.25;2.10;;;;;;;;;;5014368;28;20508;-41
2022/04/11 03:26:22;;;;;;;3.25;2.28;;;;;;;;;;4997190;28;20022;-40
2022/04/11 03:28:48;;;;;;;2.38;1.98;;;;;;;;;;5014362;28;20058;-41
2022/04/11 03:31:13;;;;;;;2.88;2.28;;;;;;;;;;5014592;28;20037;-42
2022/04/11 03:33:39;;;;;;;5.40;2.58;;;;;;;;;;5014425;28;20030;-41
2022/04/11 03:36:05;;;;;;;4.05;2.30;;;;;;;;;;5014097;28;20485;-43
2022/04/11 03:38:31;;;;;;;3.30;2.17;;;;;;;;;;4996499;28;20145;-41
2022/04/11 03:40:56;;;;;;;2.72;2.30;;;;;;;;;;4996548;28;20413;-42
2022/04/11 03:43:22;;;;;;;4.18;2.65;;;;;;;;;;5014601;28;20034;-45
2022/04/11 03:45:47;;;;;;;3.08;2.38;;;;;;;;;;5014228;28;20052;-41
2022/04/11 03:48:13;;;;;;;4.00;2.30;;;;;;;;;;5014170;28;20056;-41
2022/04/11 03:50:39;;;;;;;4.68;2.10;;;;;;;;;;5014141;28;20532;-43
2022/04/11 03:53:04;;;;;;;2.30;1.70;;;;;;;;;;5013789;28;20096;-42
2022/04/11 03:55:30;;;;;;;2.97;2.00;;;;;;;;;;5013461;28;20134;-41
2022/04/11 03:57:55;;;;;;;4.93;2.03;;;;;;;;;;5013726;28;20022;-43
2022/04/11 04:00:21;;;;;;;2.85;2.00;;;;;;;;;;5013737;28;20026;-43
2022/04/11 04:02:48;;;;;;;1.95;1.77;;;;;;;;;;5013920;28;20044;-42
2022/04/11 04:05:13;;;;;;;2.53;2.30;;;;;;;;;;5013430;28;20044;-42
2022/04/11 04:07:42;;;;;;;4.03;2.00;;;;;;;;;;4995774;28;20030;-41
2022/04/11 04:10:08;;;;;;;1.85;1.75;;;;;;;;;;5013518;28;20402;-43
2022/04/11 04:12:33;;;;;;;2.65;2.17;;;;;;;;;;5013219;28;20032;-42
2022/04/11 04:15:00;;;;;;;2.70;2.13;;;;;;;;;;5013374;28;20041;-41
2022/04/11 04:17:25;;;;;;;2.38;1.75;;;;;;;;;;5013257;28;20485;-41
2022/04/11 04:19:50;;;;;;;2.67;2.38;;;;;;;;;;5013242;28;20061;-42
2022/04/11 04:22:16;;;;;;;3.90;2.20;;;;;;;;;;5013202;28;20061;-41
2022/04/11 04:24:41;;;;;;;3.63;2.05;;;;;;;;;;5013177;28;20080;-48
2022/04/11 04:27:08;;;;;;;2.75;2.20;;;;;;;;;;5013175;28;20104;-42
2022/04/11 04:29:34;;;;;;;4.65;2.65;;;;;;;;;;5013112;28;20467;-43
2022/04/11 04:32:00;;;;;;;4.80;2.75;;;;;;;;;;5013297;28;20040;-43
2022/04/11 04:34:25;;;;;;;3.25;2.42;;;;;;;;;;5013192;28;20030;-42
2022/04/11 04:36:53;;;;;;;3.50;2.22;;;;;;;;;;5013221;28;20467;-41
2022/04/11 04:39:18;;;;;;;3.08;2.47;;;;;;;;;;5012785;28;20032;-45
2022/04/11 04:41:44;;;;;;;2.92;2.40;;;;;;;;;;5013147;28;20025;-43
2022/04/11 04:44:10;;;;;;;4.18;2.90;;;;;;;;;;4995225;28;20022;-45
2022/04/11 04:46:35;;;;;;;3.13;2.30;;;;;;;;;;5012851;28;20026;-43
2022/04/11 04:49:02;;;;;;;3.67;2.13;;;;;;;;;;5013084;28;20029;-45
2022/04/11 04:51:28;;;;;;;3.03;2.40;;;;;;;;;;5012791;28;20022;-42
2022/04/11 04:53:55;;;;;;;3.72;2.70;;;;;;;;;;5012833;28;20351;-42
2022/04/11 04:56:20;;;;;;;4.57;2.15;;;;;;;;;;5012803;28;20038;-41
2022/04/11 04:58:46;;;;;;;3.42;2.20;;;;;;;;;;5012985;28;20041;-41
2022/04/11 05:01:12;;;;;;;2.60;2.40;;;;;;;;;;5012579;28;20492;-40
2022/04/11 05:03:38;;;;;;;3.95;2.42;;;;;;;;;;5012628;28;20092;-42
2022/04/11 05:06:03;;;;;;;3.85;2.38;;;;;;;;;;5012560;28;20470;-40
2022/04/11 05:08:29;;;;;;;2.78;2.20;;;;;;;;;;5012872;28;20030;-39
2022/04/11 05:10:54;;;;;;;4.65;2.30;;;;;;;;;;5012879;28;20054;-40
2022/04/11 05:13:20;;;;;;;5.18;2.15;;;;;;;;;;5012467;28;20022;-39
2022/04/11 05:15:46;;;;;;;2.30;1.80;;;;;;;;;;5013020;28;20057;-39
2022/04/11 05:18:13;;;;;;;4.13;2.50;;;;;;;;;;5012622;28;20037;-40
2022/04/11 05:20:41;;;;;;;4.45;2.72;;;;;;;;;;5012380;28;20053;-42
2022/04/11 05:23:07;;;;;;;3.45;2.70;;;;;;;;;;5012314;28;20034;-39
2022/04/11 05:25:32;;;;;;;6.88;2.95;;;;;;;;;;5012381;28;20026;-39
2022/04/11 05:27:58;;;;;;;4.93;2.70;;;;;;;;;;5012388;28;20026;-39
2022/04/11 05:30:24;;;;;;;3.83;2.60;;;;;;;;;;5012480;28;20058;-42
2022/04/11 05:32:49;;;;;;;4.43;2.88;;;;;;;;;;5012612;28;20072;-40
2022/04/11 05:35:15;;;;;;;8.82;3.80;;;;;;;;;;5012561;28;20129;-40
2022/04/11 05:37:41;;;;;;;5.47;3.35;;;;;;;;;;5012372;28;20018;-38
2022/04/11 05:40:09;;;;;;;5.18;3.28;;;;;;;;;;5012545;28;20486;-41
2022/04/11 05:42:37;;;;;;;6.90;2.60;;;;;;;;;;5012186;28;20029;-40
2022/04/11 05:45:03;;;;;;;5.28;3.38;;;;;;;;;;5013789;28;20057;-43
2022/04/11 05:47:28;;;;;;;9.32;4.30;;;;;;;;;;5016113;28;20474;-43
2022/04/11 05:49:54;;;;;;;6.70;4.00;;;;;;;;;;4998863;28;20030;-38
2022/04/11 05:52:21;;;;;;;8.27;4.97;;;;;;;;;;5016233;28;20356;-40
2022/04/11 05:54:46;;;;;;;5.95;4.40;;;;;;;;;;5015972;28;20038;-41
2022/04/11 05:57:12;;;;;;;5.32;3.60;;;;;;;;;;5015868;28;20141;-39
2022/04/11 05:59:37;;;;;;;9.25;4.65;;;;;;;;;;5016126;28;20037;-41
2022/04/11 06:02:03;;;;;;;8.55;5.00;;;;;;;;;;5015784;28;20398;-40
2022/04/11 06:04:28;;;;;;;7.30;4.95;;;;;;;;;;5015742;28;20022;-39
2022/04/11 06:06:54;;;;;;;9.05;4.65;;;;;;;;;;5015754;28;20060;-44
2022/04/11 06:09:19;;;;;;;11.00;4.85;;;;;;;;;;5015670;28;20034;-38
2022/04/11 06:11:45;;;;;;;8.10;3.90;;;;;;;;;;5015799;28;20022;-39
2022/04/11 06:14:10;;;;;;;8.00;3.85;;;;;;;;;;5015582;28;20574;-40
2022/04/11 06:16:36;;;;;;;6.47;4.25;;;;;;;;;;5015563;28;20490;-40
2022/04/11 06:19:02;;;;;;;8.85;5.05;;;;;;;;;;4998231;28;20080;-39
2022/04/11 06:21:27;;;;;;;7.90;4.95;;;;;;;;;;5015408;28;20087;-39
2022/04/11 06:23:53;;;;;;;8.57;4.53;;;;;;;;;;4997821;28;20026;-41
2022/04/11 06:26:19;;;;;;;9.82;4.72;;;;;;;;;;5015406;28;20026;-39
2022/04/11 06:28:44;;;;;;;7.32;4.72;;;;;;;;;;5015340;28;20394;-40
2022/04/11 06:31:11;;;;;;;9.57;5.10;;;;;;;;;;5015527;28;20026;-41
2022/04/11 06:33:37;;;;;;;6.60;4.50;;;;;;;;;;5015146;28;20026;-47
2022/04/11 06:36:03;;;;;;;5.72;4.28;;;;;;;;;;4997484;28;20488;-40
2022/04/11 06:38:29;;;;;;;8.27;4.45;;;;;;;;;;5015339;28;20116;-42
2022/04/11 06:40:55;;;;;;;8.63;5.00;;;;;;;;;;5015130;28;20030;-42
2022/04/11 06:43:21;;;;;;;7.25;4.70;;;;;;;;;;5015159;28;20041;-38
2022/04/11 06:45:47;;;;;;;8.40;4.60;;;;;;;;;;5015352;28;20378;-40
2022/04/11 06:48:13;;;;;;;6.78;4.65;;;;;;;;;;5014983;28;20378;-43
2022/04/11 06:50:38;;;;;;;7.53;4.75;;;;;;;;;;5014846;28;20109;-41
2022/04/11 06:53:04;;;;;;;8.10;4.80;;;;;;;;;;4997358;28;20077;-40
2022/04/11 06:55:30;;;;;;;7.07;4.78;;;;;;;;;;5014193;28;20038;-41
2022/04/11 06:57:55;;;;;;;7.63;5.22;;;;;;;;;;5014031;28;20033;-45
2022/04/11 07:00:21;;;;;;;8.63;5.05;;;;;;;;;;5014647;28;20040;-40
2022/04/11 07:02:46;;;;;;;8.48;5.25;;;;;;;;;;5014445;28;20048;-44
2022/04/11 07:05:12;;;;;;;9.25;5.45;;;;;;;;;;5014848;28;20084;-43
2022/04/11 07:07:39;;;;;;;12.40;6.45;;;;;;;;;;5014675;28;20101;-44
2022/04/11 07:10:05;;;;;;;9.13;6.00;;;;;;;;;;5014886;28;20032;-45
2022/04/11 07:12:30;;;;;;;9.57;5.75;;;;;;;;;;5014801;28;20034;-46
2022/04/11 07:15:00;;;;;;;10.57;5.28;;;;;;;;;;5014677;28;20033;-42
2022/04/11 07:17:26;;;;;;;12.20;5.85;;;;;;;;;;5014703;28;20440;-45
2022/04/11 07:19:51;;;;;;;13.32;6.30;;;;;;;;;;5014375;28;20121;-42
2022/04/11 07:22:23;;;;;;;11.25;6.50;;;;;;;;;;5014319;28;20053;-42
2022/04/11 07:24:49;;;;;;;9.18;5.75;;;;;;;;;;5014310;28;20026;-45
2022/04/11 07:27:15;;;;;;;10.23;5.78;;;;;;;;;;5014549;28;20034;-44
2022/04/11 07:29:40;;;;;;;8.30;5.72;;;;;;;;;;5014538;28;20032;-42
2022/04/11 07:32:06;;;;;;;8.88;5.68;;;;;;;;;;5014151;28;20079;-45
2022/04/11 07:34:32;;;;;;;9.60;5.47;;;;;;;;;;5014281;28;20029;-40
2022/04/11 07:36:57;;;;;;;9.60;6.20;;;;;;;;;;5014066;28;20030;-40
2022/04/11 07:39:26;;;;;;;9.63;5.63;;;;;;;;;;5013949;28;20017;-40
2022/04/11 07:41:55;;;;;;;8.88;5.82;;;;;;;;;;5013826;28;20030;-42
2022/04/11 07:44:21;;;;;;;8.30;5.60;;;;;;;;;;5013901;28;20033;-42
2022/04/11 07:46:47;;;;;;;12.05;6.10;;;;;;;;;;5013850;28;20040;-43
2022/04/11 07:49:12;;;;;;;7.72;4.75;;;;;;;;;;5014065;28;20109;-43
2022/04/11 07:51:38;;;;;;;10.60;6.13;;;;;;;;;;5014077;28;20378;-44
2022/04/11 07:54:03;;;;;;;10.15;6.47;;;;;;;;;;5013458;28;20465;-41
2022/04/11 07:56:29;;;;;;;9.32;4.97;;;;;;;;;;5014011;28;20103;-46
2022/04/11 07:58:55;;;;;;;9.95;4.13;;;;;;;;;;5013657;28;20037;-43
2022/04/11 08:01:21;;;;;;;7.10;3.42;;;;;;;;;;5013635;28;20303;-41
2022/04/11 08:03:47;;;;;;;3.90;2.92;;;;;;;;;;5013791;28;20069;-45
2022/04/11 08:06:13;;;;;;;4.40;2.80;;;;;;;;;;5013835;28;20053;-44
2022/04/11 08:08:44;;;;;;;3.35;2.40;;;;;;;;;;5013050;28;20049;-45
2022/04/11 08:11:13;;;;;;;2.00;1.80;;;;;;;;;;5014046;28;20097;-43
2022/04/11 08:13:39;;;;;;;2.85;2.08;;;;;;;;;;5013396;28;20029;-43
2022/04/11 08:16:05;;;;;;;2.42;1.70;;;;;;;;;;5013701;28;20029;-45
2022/04/11 08:18:31;;;;;;;2.33;1.58;;;;;;;;;;5013573;28;20022;-41
2022/04/11 08:20:56;;;;;;;5.50;1.98;;;;;;;;;;5013463;28;20156;-41
2022/04/11 08:23:22;;;;;;;2.83;1.45;;;;;;;;;;5013450;28;20042;-46
2022/04/11 08:25:49;;;;;;;2.35;1.70;;;;;;;;;;5013274;28;20032;-43
2022/04/11 08:28:15;;;;;;;3.58;1.90;;;;;;;;;;5012881;28;20022;-41
2022/04/11 08:30:40;;;;;;;2.30;1.80;;;;;;;;;;5012942;28;20057;-40
2022/04/11 08:33:06;;;;;;;2.30;2.10;;;;;;;;;;5013202;28;20032;-44
2022/04/11 08:35:32;;;;;;;3.38;1.95;;;;;;;;;;5013117;28;20033;-46
2022/04/11 08:37:57;;;;;;;16.10;5.18;;;;;;;;;;5013263;28;20454;-44
2022/04/11 08:40:23;;;;;;;4.32;1.90;;;;;;;;;;5013143;28;20493;-46
2022/04/11 08:42:50;;;;;;;3.53;1.92;;;;;;;;;;5012071;28;20520;-46
2022/04/11 08:45:17;;;;;;;2.65;2.05;;;;;;;;;;5013049;28;20030;-45
2022/04/11 08:47:43;;;;;;;2.15;1.70;;;;;;;;;;5013101;28;20022;-46
2022/04/11 08:50:10;;;;;;;4.13;1.70;;;;;;;;;;5012882;28;20463;-42
2022/04/11 08:52:37;;;;;;;2.33;1.85;;;;;;;;;;5012366;28;20026;-47
2022/04/11 08:55:03;;;;;;;3.92;2.50;;;;;;;;;;5012599;28;20384;-44
2022/04/11 08:57:28;;;;;;;2.70;1.98;;;;;;;;;;5012860;28;20076;-47
2022/04/11 08:59:55;;;;;;;4.65;2.50;;;;;;;;;;5012281;28;20025;-44
2022/04/11 09:02:30;;;;;;;4.07;2.15;;;;;;;;;;5011529;28;20160;-46
2022/04/11 09:04:56;;;;;;;10.10;3.10;;;;;;;;;;5012543;28;20030;-49
2022/04/11 09:07:23;;;;;;;7.03;3.33;;;;;;;;;;5012476;28;20025;-42
2022/04/11 09:09:49;;;;;;;4.38;2.72;;;;;;;;;;5011968;28;20030;-42
2022/04/11 09:12:16;;;;;;;4.93;2.95;;;;;;;;;;5012231;28;20029;-42
2022/04/11 09:14:43;;;;;;;4.65;3.00;;;;;;;;;;5012781;28;20029;-39
2022/04/11 09:17:11;;;;;;;4.20;3.38;;;;;;;;;;5009946;28;20034;-44
2022/04/11 09:19:41;;;;;;;6.88;4.78;;;;;;;;;;5008116;28;20018;-46
2022/04/11 09:22:06;;;;;;;5.18;3.53;;;;;;;;;;5012102;28;20033;-41
2022/04/11 09:24:32;;;;;;;5.50;3.53;;;;;;;;;;5012243;28;20129;-48
2022/04/11 09:26:58;;;;;;;8.80;4.45;;;;;;;;;;5012360;28;20386;-49
2022/04/11 09:29:30;;;;;;;8.50;4.15;;;;;;;;;;5012398;28;20441;-45
2022/04/11 09:32:02;;;;;;;7.80;5.20;;;;;;;;;;5011230;28;20022;-45
2022/04/11 09:34:28;;;;;;;9.63;4.32;;;;;;;;;;5012663;28;20034;-43
2022/04/11 09:36:55;;;;;;;6.13;3.80;;;;;;;;;;4995064;28;20036;-42
2022/04/11 09:39:23;;;;;;;4.70;3.30;;;;;;;;;;5012013;28;20112;-46
2022/04/11 09:41:50;;;;;;;5.28;3.92;;;;;;;;;;5010524;28;20090;-47
2022/04/11 09:44:22;;;;;;;7.22;3.10;;;;;;;;;;5010636;28;20037;-42
2022/04/11 09:46:49;;;;;;;5.75;2.90;;;;;;;;;;5010958;28;20393;-45
2022/04/11 09:49:15;;;;;;;4.72;3.03;;;;;;;;;;5010579;28;20498;-43
2022/04/11 09:52:08;;;;;;;4.15;3.08;;;;;;;;;;5010400;28;20038;-48
2022/04/11 09:54:37;;;;;;;3.17;2.78;;;;;;;;;;5010538;28;20542;-45
2022/04/11 09:57:04;;;;;;;11.50;3.40;;;;;;;;;;5010487;28;20026;-42
2022/04/11 09:59:30;;;;;;;5.30;3.03;;;;;;;;;;5010662;28;20022;-40
2022/04/11 10:01:57;;;;;;;3.97;3.03;;;;;;;;;;5010190;28;20398;-42
2022/04/11 10:04:23;;;;;;;4.55;3.10;;;;;;;;;;5010394;28;20037;-42
2022/04/11 10:06:49;;;;;;;3.75;2.70;;;;;;;;;;5010264;28;20124;-41
2022/04/11 10:09:15;;;;;;;6.35;3.50;;;;;;;;;;5010554;28;20120;-42
2022/04/11 10:11:42;;;;;;;3.63;3.00;;;;;;;;;;5010434;28;20034;-41
2022/04/11 10:14:11;;;;;;;6.18;3.17;;;;;;;;;;5010363;28;20026;-39
2022/04/11 10:16:44;;;;;;;4.13;2.90;;;;;;;;;;5010191;28;20037;-42
2022/04/11 10:19:13;;;;;;;5.93;2.55;;;;;;;;;;4993204;28;20406;-42
2022/04/11 10:21:44;;;;;;;5.03;3.00;;;;;;;;;;5010364;28;20081;-48
2022/04/11 10:24:33;;;;;;;2.55;2.35;;;;;;;;;;5010472;28;20448;-45
2022/04/11 10:27:19;;;;;;;2.97;2.55;;;;;;;;;;5010394;28;20113;-42
2022/04/11 10:29:45;;;;;;;3.38;2.38;;;;;;;;;;5010590;28;20165;-42
2022/04/11 10:32:16;;;;;;;3.60;2.40;;;;;;;;;;5013384;28;20033;-41
2022/04/11 10:34:54;;;;;;;3.15;2.67;;;;;;;;;;5013974;28;20061;-42
2022/04/11 10:37:25;;;;;;;2.92;2.33;;;;;;;;;;5013642;28;20033;-43
2022/04/11 10:39:52;;;;;;;4.30;2.70;;;;;;;;;;5013432;28;20109;-40
2022/04/11 10:42:23;;;;;;;5.03;2.40;;;;;;;;;;5013720;28;20050;-45
2022/04/11 10:44:59;;;;;;;2.50;2.30;;;;;;;;;;5013634;28;20034;-43
2022/04/11 10:47:31;;;;;;;4.25;3.10;;;;;;;;;;5013539;28;20560;-42
2022/04/11 10:50:01;;;;;;;4.95;2.70;;;;;;;;;;5012237;28;20084;-45
2022/04/11 10:52:35;;;;;;;3.65;2.67;;;;;;;;;;5013335;28;20482;-42
2022/04/11 10:55:06;;;;;;;5.00;2.80;;;;;;;;;;5012935;28;20133;-42
2022/04/11 10:57:37;;;;;;;5.57;2.70;;;;;;;;;;5013527;28;20029;-44
2022/04/11 11:00:14;;;;;;;3.70;2.83;;;;;;;;;;4995407;28;20044;-42
2022/04/11 11:02:48;;;;;;;9.18;2.67;;;;;;;;;;5013225;28;20034;-41
2022/04/11 11:05:38;;;;;;;6.75;3.70;;;;;;;;;;5012987;28;20022;-43
2022/04/11 11:08:09;;;;;;;4.93;2.83;;;;;;;;;;5013444;28;20030;-42
2022/04/11 11:10:54;;;;;;;3.45;2.75;;;;;;;;;;5013260;28;20418;-47
2022/04/11 11:13:32;;;;;;;4.22;3.15;;;;;;;;;;5013067;28;20434;-43
2022/04/11 11:15:59;;;;;;;5.00;3.05;;;;;;;;;;5012946;28;20084;-45
2022/04/11 11:18:25;;;;;;;3.92;3.15;;;;;;;;;;5012805;28;20049;-44
2022/04/11 11:20:54;;;;;;;6.35;3.78;;;;;;;;;;5012612;28;20502;-45
2022/04/11 11:23:21;;;;;;;4.22;2.83;;;;;;;;;;5012581;28;20156;-40
2022/04/11 11:25:48;;;;;;;4.13;2.85;;;;;;;;;;5012588;28;20033;-42
2022/04/11 11:28:14;;;;;;;5.72;3.03;;;;;;;;;;5012869;28;20041;-45
2022/04/11 11:30:40;;;;;;;5.20;3.50;;;;;;;;;;5012678;28;20021;-43
2022/04/11 11:33:08;;;;;;;4.32;2.95;;;;;;;;;;5012408;28;20032;-42
2022/04/11 11:35:34;;;;;;;5.75;3.42;;;;;;;;;;5011840;28;20519;-43
2022/04/11 11:38:04;;;;;;;4.32;3.20;;;;;;;;;;5011686;28;20030;-39
2022/04/11 11:40:30;;;;;;;4.47;3.35;;;;;;;;;;5012245;28;20030;-44
2022/04/11 11:42:56;;;;;;;3.38;2.60;;;;;;;;;;5011503;28;20061;-44
2022/04/11 11:45:28;;;;;;;6.57;3.47;;;;;;;;;;5012295;28;20492;-43
2022/04/11 11:47:54;;;;;;;5.40;2.85;;;;;;;;;;5012499;28;20030;-45
2022/04/11 11:50:19;;;;;;;4.15;3.20;;;;;;;;;;5012583;28;20034;-40
2022/04/11 11:52:58;;;;;;;3.13;2.80;;;;;;;;;;5012504;28;20033;-39
2022/04/11 11:55:23;;;;;;;4.57;2.80;;;;;;;;;;5011756;28;20053;-42
2022/04/11 11:58:03;;;;;;;6.57;3.70;;;;;;;;;;5011802;28;20034;-42
2022/04/11 12:00:34;;;;;;;3.83;2.88;;;;;;;;;;5011994;28;20478;-41
2022/04/11 12:05:43;;;;;;;3.17;1.90;;;;;;;;;;5011522;28;20041;-41
2022/04/11 12:08:08;;;;;;;3.90;2.50;;;;;;;;;;5011922;28;20026;-40
2022/04/11 12:10:35;;;;;;;2.47;2.00;;;;;;;;;;5011242;28;20030;-45
2022/04/11 12:13:00;;;;;;;4.50;2.40;;;;;;;;;;5011874;28;20496;-40
2022/04/11 12:15:34;;;;;;;2.70;2.10;;;;;;;;;;5011712;28;20034;-43
2022/04/11 12:18:02;;;;;;;4.28;2.72;;;;;;;;;;4993894;28;20022;-40
2022/04/11 12:20:30;;;;;;;4.55;3.40;;;;;;;;;;5011709;28;20060;-40
2022/04/11 12:23:15;;;;;;;3.70;2.80;;;;;;;;;;5011858;28;20121;-41
2022/04/11 12:25:42;;;;;;;4.13;2.47;;;;;;;;;;5011629;28;20116;-41
2022/04/11 12:28:15;;;;;;;3.17;2.00;;;;;;;;;;5011003;28;20116;-41
2022/04/11 12:30:46;;;;;;;4.35;2.50;;;;;;;;;;5011297;28;20025;-42
2022/04/11 12:33:34;;;;;;;2.65;2.00;;;;;;;;;;5008919;28;20478;-40
2022/04/11 12:36:16;;;;;;;4.13;2.00;;;;;;;;;;5010162;28;20466;-40
2022/04/11 12:38:58;;;;;;;3.20;1.90;;;;;;;;;;5011602;28;20025;-40
2022/04/11 12:41:39;;;;;;;3.15;2.10;;;;;;;;;;5011390;28;20033;-41
2022/04/11 12:44:09;;;;;;;3.88;2.28;;;;;;;;;;5011158;28;20030;-39
2022/04/11 12:46:39;;;;;;;;;;;;;;;;;;4993765;28;20470;-39
2022/04/11 12:49:06;;;;;;;2.30;1.73;;;;;;;;;;5011042;28;19935;-40
2022/04/11 12:51:32;;;;;;;2.15;1.60;;;;;;;;;;5011129;28;20057;-40
2022/04/11 12:54:23;;;;;;;2.40;1.80;;;;;;;;;;5010048;28;20033;-41
2022/04/11 12:56:51;;;;;;;2.25;1.88;;;;;;;;;;5008239;28;20070;-43
2022/04/11 12:59:34;;;;;;;2.30;1.98;;;;;;;;;;4993238;28;20115;-44
2022/04/11 13:02:14;;;;;;;2.45;1.83;;;;;;;;;;5011274;28;20036;-40
2022/04/11 13:04:54;;;;;;;4.22;1.80;;;;;;;;;;5010859;28;20429;-39
2022/04/11 13:07:21;;;;;;;2.50;2.10;;;;;;;;;;5011333;28;20550;-40
2022/04/11 13:09:48;;;;;;;4.22;2.88;;;;;;;;;;5011213;28;20381;-41
2022/04/11 13:12:18;;;;;;;5.35;2.20;;;;;;;;;;5011345;28;20060;-42
2022/04/11 13:14:45;;;;;;;3.85;2.40;;;;;;;;;;5011266;28;20401;-41
2022/04/11 13:19:57;;;;;;;3.55;1.90;;;;;;;;;;5011235;28;20041;-39
2022/04/11 13:22:24;;;;;;;2.75;1.80;;;;;;;;;;5011035;28;20080;-40
2022/04/11 13:24:50;;;;;;;1.98;1.40;;;;;;;;;;5010760;28;20490;-40
2022/04/11 13:27:17;;;;;;;9.05;1.77;;;;;;;;;;5010744;28;20033;-41
2022/04/11 13:29:43;;;;;;;2.20;1.60;;;;;;;;;;5010663;28;20091;-40
2022/04/11 13:32:09;;;;;;;2.78;2.03;;;;;;;;;;4993162;28;20038;-40
2022/04/11 13:34:35;;;;;;;4.15;2.40;;;;;;;;;;5010883;28;20048;-41
2022/04/11 13:37:01;;;;;;;2.42;2.22;;;;;;;;;;5010864;28;20068;-42
2022/04/11 13:39:26;;;;;;;5.70;2.10;;;;;;;;;;5010691;28;20022;-41
2022/04/11 13:41:52;;;;;;;3.58;2.17;;;;;;;;;;5010795;28;20049;-40
2022/04/11 13:44:20;;;;;;;1.73;1.63;;;;;;;;;;5010054;28;20026;-42
2022/04/11 13:46:46;;;;;;;1.75;1.60;;;;;;;;;;5010556;28;20026;-41
2022/04/11 13:49:13;;;;;;;3.13;1.98;;;;;;;;;;5010664;28;20109;-42
2022/04/11 13:51:39;;;;;;;2.92;2.38;;;;;;;;;;5010485;28;20025;-41
2022/04/11 13:54:06;;;;;;;3.63;2.22;;;;;;;;;;5010432;28;20367;-41
2022/04/11 13:56:32;;;;;;;2.28;2.00;;;;;;;;;;5010521;28;20129;-41
2022/04/11 13:58:57;;;;;;;1.50;1.40;;;;;;;;;;5010338;28;20032;-40
2022/04/11 14:01:24;;;;;;;6.75;1.98;;;;;;;;;;5010126;28;20030;-42
2022/04/11 14:03:50;;;;;;;2.80;1.60;;;;;;;;;;5010644;28;20040;-39
2022/04/11 14:06:16;;;;;;;2.25;1.75;;;;;;;;;;5012385;28;20484;-41
2022/04/11 14:08:42;;;;;;;2.10;1.90;;;;;;;;;;5013573;28;20030;-39
2022/04/11 14:11:08;;;;;;;4.40;1.88;;;;;;;;;;5014151;28;20531;-43
2022/04/11 14:13:34;;;;;;;3.03;2.10;;;;;;;;;;5013953;28;20034;-39
2022/04/11 14:16:00;;;;;;;3.65;2.30;;;;;;;;;;5014046;28;20198;-40
2022/04/11 14:18:26;;;;;;;3.90;2.55;;;;;;;;;;5013466;28;20030;-42
2022/04/11 14:20:51;;;;;;;4.45;2.55;;;;;;;;;;5014104;28;20106;-39
2022/04/11 14:23:18;;;;;;;4.50;2.60;;;;;;;;;;5013769;28;20506;-39
2022/04/11 14:25:44;;;;;;;3.55;2.50;;;;;;;;;;5013814;28;20104;-38
2022/04/11 14:28:11;;;;;;;3.63;2.60;;;;;;;;;;5013393;28;20026;-40
2022/04/11 14:30:39;;;;;;;3.50;2.78;;;;;;;;;;5013594;28;20032;-38
2022/04/11 14:33:05;;;;;;;4.20;2.83;;;;;;;;;;5013955;28;20026;-40
2022/04/11 14:35:30;;;;;;;2.83;1.80;;;;;;;;;;5013656;28;20105;-39
2022/04/11 14:37:56;;;;;;;3.92;2.25;;;;;;;;;;5013178;28;20026;-38
2022/04/11 14:40:23;;;;;;;1.90;1.73;;;;;;;;;;5014001;28;20076;-44
2022/04/11 14:42:49;;;;;;;2.05;1.85;;;;;;;;;;5013489;28;20065;-41
2022/04/11 14:45:14;;;;;;;2.92;1.80;;;;;;;;;;5011870;28;20062;-39
2022/04/11 14:47:40;;;;;;;2.38;1.55;;;;;;;;;;5013760;28;20100;-41
2022/04/11 14:50:06;;;;;;;2.47;2.13;;;;;;;;;;5013321;28;20034;-40